Etusivu
METAR-TAF:

METAR-TAF

Lentoasemat :

Dubai, Yhdistyneet arabiemiirikunnat

Dubain kansainvälinen lentoasema

Leveyspiiri: 25-15-10N, Pituuspiiri: 055-21-52E, korkeus merenpinnasta: 8 m

Tämänhetkinen sää

Tämä raportti tehtiin 57 minuuttia sitten, kello 16.00 UTC
Tuuli 3 kn pohjoisen/luoteesta, vaihdellen lännen/luoteen ja pohjoisen/koillisen välillä
Lämpötila 35°C
Kosteus 75%
Ilmanpaine 999 hPa
Näkyvyys: 7000 m

METAR: OMDB 191600Z 34003KT 290V020 7000 NSC 35/30 Q0999 NOSIG

Aika: 20:57 (16:57 UTC)

Sääennuste

Tämä raportti tehtiin 5 tuntia ja 52 minuuttia sitten, kello 11.05 UTC
Ennuste voimassa 19. päivästä klo 12 UTC - 20. päivään klo 18 UTC
Tuuli 12 kn pohjoisen/luoteesta
Näkyvyys: 6000 m
Tulossa
19. päivästä klo 16 UTC - 19. päivään klo 18 UTC
Tuuli 7 kn idästä
Tulossa
20. päivästä klo 10 UTC - 20. päivään klo 12 UTC
Tuuli 12 kn pohjoisesta

TAF: OMDB 191105Z 1912/2018 34012KT 6000 NSC BECMG 1916/1918 08007KT BECMG 2010/2012 36012KT

Säähavainnot ja -ennusteet yli 4000 lentoasemalta (METAR- ja TAF-raportit).

Käytössä olevat sääasemat on merkitty karttaan keltaisilla ja punaisilla pisteillä.

Aseta hiiri pisteen päälle nähdäksesi sääaseman nimen.

Klikkaa sitten nähdäksesi säähavainnot ja -ennusteet.

Kartan vaihtaminen: klikkaa mustalla rastilla varustettuja vihreitä pisteitä, niin voit zoomata sisään; viivalla varustettua vihreää pistettä, niin voit zoomata ulos tai vihreitä nuolia, niin pääset viereisille kartoille.


METAR-TAF: